Airfield :
LOGIN :

Register | Disclaimer

   EN    FR    IT 

 










Legend :    VFR   Marginal VFR   IFR   Intensive IFR   Very Intensive IFR
Visi :
Ceiling :
>= 8 km
>= 3000ft
5 to 8 km
1000 to 3000 ft
1500m to 5 km
500 to 1000 ft
800 to 1500m
200 to 500 ft
< 800m
< 200 ft
Symbols :   Thunderstorms  Fog  Heavy snow  Heavy precipitations  Wind > 20 kt
SIGMETs :     Misc.  Thunderstorms  Icing  Turbulence  Mountain Waves  Volcanic Ashes






- Airport Elevation : 287 ft


LFRL - Lanveoc Poulmic

CURRENT METAR :
  • 191600Z AUTO 25010KT 220V280 9999 FEW005 SCT010 BKN032 09/07 Q1024 BECMG 23015G25KT

EXPIRED METARs :
  • 191530Z AUTO 23009KT 9999 FEW009 BKN017 BKN024 10/08 Q1024 BECMG 23015G25KT
  • 191500Z AUTO 24011KT 9999 SCT008 BKN022 BKN029 10/08 Q1025 BECMG 23015G25KT
  • 191430Z AUTO 22011KT 9999 FEW010 BKN017 BKN033 10/08 Q1025 BECMG 23015G25KT
  • 191400Z AUTO 23012KT 9999 FEW006 SCT034 BKN043 10/08 Q1025 BECMG 23015G25KT
  • 191330Z AUTO 24017KT 9000 4200 FEW011 SCT018 BKN023 10/07 Q1026 BECMG 23015G25KT

TAF TAF LFRL
Valid from the 19 at 12:00 until the 20 at 12:00 UTC


191100Z 1912/2012 23015G25KT 9999 BKN016 BKN038 OVC100
TEMPO 1921/2008 4000 -DZ BKN009
BECMG 2008/2010 22025G35KT 3000 RA BKN004 BKN009



MET'MAP, your aeronautical weather chart ! - Copyright ORBIFLY December 2007 - Disclaimer

ORBIFLY MET'MAP TEAM :

Programming & Development : Alexandra Zaïnal
Concept & original design : Baudouin d'Aumeries
Assistance for programming : Marc-Olivier Méhu
Technical & hardware support : Manuel Goepfert

Contact : metmap@orbifly.com




SOURCES & CREDITS :

   NOAA